Time;durP1;ratioP1;P1;durP2;ratioP2;P2;SDS_P1;SDS_P2;PMS_P1;PMS_P2;Temp;Humidity;BMP_temperature;BMP_pressure;BME280_temperature;BME280_humidity;BME280_pressure;Samples;Min_cycle;Max_cycle;Signal;HPM_P1;HPM_P2
2021/01/13 00:03:03;;;;;;;25.65;15.05;;;;;;;-3.84;100.00;99261.13;1785855;80;21298;-80
2021/01/13 00:06:09;;;;;;;26.20;13.55;;;;;;;-3.82;100.00;99240.97;1785782;80;21128;-80
2021/01/13 00:09:15;;;;;;;25.55;13.60;;;;;;;-3.81;100.00;99207.94;1785966;80;21818;-80
2021/01/13 00:12:21;;;;;;;30.37;13.78;;;;;;;-3.80;100.00;99200.31;1785912;80;21640;-80
2021/01/13 00:15:27;;;;;;;25.43;14.50;;;;;;;-3.78;100.00;99189.02;1785980;80;21756;-80
2021/01/13 00:18:33;;;;;;;30.15;16.55;;;;;;;-3.75;100.00;99180.30;1785324;80;21152;-79
2021/01/13 00:21:38;;;;;;;29.40;16.60;;;;;;;-3.74;100.00;99186.48;1785907;80;21227;-80
2021/01/13 00:24:44;;;;;;;28.98;15.58;;;;;;;-3.74;100.00;99167.78;1785859;80;21219;-80
2021/01/13 00:27:50;;;;;;;25.43;13.80;;;;;;;-3.73;100.00;99177.02;1785895;80;21637;-80
2021/01/13 00:30:55;;;;;;;25.75;12.95;;;;;;;-3.72;100.00;99173.37;1785854;80;21116;-80
2021/01/13 00:34:00;;;;;;;21.68;11.68;;;;;;;-3.69;100.00;99189.67;1785789;80;21258;-80
2021/01/13 00:37:05;;;;;;;27.60;12.50;;;;;;;-3.71;100.00;99187.61;1777948;80;21327;-79
2021/01/13 00:40:13;;;;;;;24.50;13.35;;;;;;;-3.72;100.00;99157.81;1772146;81;21247;-80
2021/01/13 00:43:19;;;;;;;24.00;13.72;;;;;;;-3.72;100.00;99180.53;1772012;81;21278;-79
2021/01/13 00:46:23;;;;;;;24.02;14.38;;;;;;;-3.74;100.00;99163.78;1772047;81;21279;-80
2021/01/13 00:49:28;;;;;;;25.70;13.60;;;;;;;-3.73;100.00;99156.13;1772075;81;21267;-80
2021/01/13 00:52:33;;;;;;;28.80;13.68;;;;;;;-3.74;100.00;99143.73;1772036;81;21145;-79
2021/01/13 00:55:40;;;;;;;22.40;13.20;;;;;;;-3.77;100.00;99119.41;1772108;81;21243;-79
2021/01/13 00:58:45;;;;;;;21.73;10.93;;;;;;;-3.80;100.00;99129.02;1772114;81;21286;-79
2021/01/13 01:01:51;;;;;;;19.50;11.85;;;;;;;-3.81;100.00;99122.43;1772205;81;21240;-80
2021/01/13 01:04:57;;;;;;;21.68;13.15;;;;;;;-3.78;100.00;99104.36;1771915;81;21858;-79
2021/01/13 01:08:02;;;;;;;28.10;12.18;;;;;;;-3.76;100.00;99053.48;1772034;81;21259;-79
2021/01/13 01:11:07;;;;;;;23.55;12.28;;;;;;;-3.77;100.00;99037.06;1772089;81;21790;-80
2021/01/13 01:14:13;;;;;;;19.50;11.05;;;;;;;-3.78;100.00;99044.23;1772102;81;21129;-79
2021/01/13 01:17:18;;;;;;;21.42;9.53;;;;;;;-3.79;100.00;99039.02;1772129;81;21113;-79
2021/01/13 01:20:23;;;;;;;20.23;11.18;;;;;;;-3.80;100.00;99044.84;1771956;81;21164;-79
2021/01/13 01:23:29;;;;;;;19.95;10.25;;;;;;;-3.80;100.00;99042.17;1772112;81;21656;-80
2021/01/13 01:26:34;;;;;;;21.48;10.80;;;;;;;-3.80;100.00;99033.31;1772065;81;21763;-79
2021/01/13 01:29:39;;;;;;;20.20;11.28;;;;;;;-3.81;100.00;99015.55;1772048;81;21240;-80
2021/01/13 01:32:44;;;;;;;17.87;10.40;;;;;;;-3.82;100.00;99025.87;1772070;81;21239;-80
2021/01/13 01:35:51;;;;;;;19.15;10.35;;;;;;;-3.81;100.00;99011.08;1772106;81;21251;-79
2021/01/13 01:38:56;;;;;;;19.02;9.78;;;;;;;-3.77;100.00;98990.30;1778867;80;21826;-79
2021/01/13 01:42:02;;;;;;;13.75;7.75;;;;;;;-3.73;100.00;98990.44;1785799;80;21140;-80
2021/01/13 01:45:07;;;;;;;17.07;9.48;;;;;;;-3.71;100.00;98959.12;1785755;80;21188;-80
2021/01/13 01:48:33;;;;;;;19.40;9.25;;;;;;;-3.69;100.00;98957.16;1784098;80;21148;-80
2021/01/13 01:51:41;;;;;;;16.15;8.93;;;;;;;-3.68;100.00;98958.86;1785793;80;21132;-80
2021/01/13 01:54:50;;;;;;;18.37;9.80;;;;;;;-3.58;100.00;98958.99;1785814;80;21125;-79
2021/01/13 01:57:55;;;;;;;12.70;7.90;;;;;;;-3.52;100.00;98976.75;1785650;80;21592;-80
2021/01/13 02:01:02;;;;;;;14.63;8.38;;;;;;;-3.49;100.00;98981.00;1785791;80;21703;-79
2021/01/13 02:04:20;;;;;;;9.23;5.30;;;;;;;-3.50;100.00;98990.84;1785819;80;21600;-80
2021/01/13 02:07:29;;;;;;;18.32;8.88;;;;;;;-3.53;100.00;98972.36;1785804;80;21167;-80
2021/01/13 02:10:34;;;;;;;13.38;8.25;;;;;;;-3.52;100.00;98979.92;1785797;80;21133;-80
2021/01/13 02:13:39;;;;;;;15.38;8.70;;;;;;;-3.52;100.00;99003.48;1785782;80;21144;-79
2021/01/13 02:16:44;;;;;;;18.90;9.80;;;;;;;-3.49;100.00;99009.91;1763966;80;21311;-80
2021/01/13 02:20:12;;;;;;;15.40;9.78;;;;;;;-3.49;100.00;99002.37;1785743;80;21717;-79
2021/01/13 02:23:17;;;;;;;18.40;9.53;;;;;;;-3.50;100.00;98986.83;1785787;80;21132;-81
2021/01/13 02:26:41;;;;;;;16.48;9.28;;;;;;;-3.52;100.00;98964.73;1785677;80;21141;-80
2021/01/13 02:29:57;;;;;;;22.62;9.15;;;;;;;-3.50;100.00;98956.09;1785782;80;21271;-80
2021/01/13 02:33:04;;;;;;;15.10;9.53;;;;;;;-3.51;100.00;98960.23;1785692;80;21175;-79
2021/01/13 02:36:27;;;;;;;14.90;8.40;;;;;;;-3.50;100.00;98963.27;1763872;80;21290;-80
2021/01/13 02:39:33;;;;;;;16.45;10.20;;;;;;;-3.47;100.00;98979.92;1776057;80;21272;-80
2021/01/13 02:42:42;;;;;;;15.25;9.08;;;;;;;-3.47;100.00;98968.38;1772051;81;21669;-80
2021/01/13 02:45:53;;;;;;;11.13;7.07;;;;;;;-3.42;100.00;98963.52;1772306;81;21232;-79
2021/01/13 02:48:58;;;;;;;14.23;8.40;;;;;;;-3.37;100.00;98981.38;1772030;81;21311;-80
2021/01/13 02:52:08;;;;;;;14.98;8.08;;;;;;;-3.36;100.00;98963.87;1771818;81;21153;-79
2021/01/13 02:55:14;;;;;;;11.75;7.75;;;;;;;-3.35;100.00;98942.84;1772163;81;21236;-80
2021/01/13 02:58:18;;;;;;;15.30;7.58;;;;;;;-3.31;100.00;98946.61;1771975;81;21771;-80
2021/01/13 03:01:23;;;;;;;10.53;6.90;;;;;;;-3.30;100.00;98929.10;1772148;81;21291;-80
2021/01/13 03:04:29;;;;;;;15.10;7.95;;;;;;;-3.30;100.00;98921.08;1772127;81;21117;-80
2021/01/13 03:07:34;;;;;;;11.00;6.78;;;;;;;-3.27;100.00;98905.29;1771888;81;21307;-80
2021/01/13 03:10:45;;;;;;;13.45;7.80;;;;;;;-3.27;100.00;98921.34;1772049;81;21838;-80
2021/01/13 03:13:51;;;;;;;11.95;6.03;;;;;;;-3.22;100.00;98913.79;1772221;81;21243;-80
2021/01/13 03:17:17;;;;;;;9.33;6.25;;;;;;;-3.15;100.00;98881.09;1772137;81;21109;-80
2021/01/13 03:20:56;;;;;;;10.43;5.70;;;;;;;-3.05;100.00;98904.42;1772175;81;21247;-80
2021/01/13 03:24:21;;;;;;;8.03;5.62;;;;;;;-2.96;100.00;98891.14;1772137;81;21767;-80
2021/01/13 03:27:27;;;;;;;7.87;5.15;;;;;;;-2.78;100.00;98890.58;1758584;81;21748;-80
2021/01/13 03:30:33;;;;;;;6.45;3.80;;;;;;;-2.61;100.00;98908.29;1754778;81;21755;-80
2021/01/13 03:34:27;;;;;;;8.03;5.15;;;;;;;-2.49;100.00;98917.15;1769402;81;21803;-79
2021/01/13 03:37:33;;;;;;;9.10;5.42;;;;;;;-2.44;100.00;98890.83;1770405;81;21291;-80
2021/01/13 03:40:39;;;;;;;8.88;5.03;;;;;;;-2.49;100.00;98909.12;1768962;79;21351;-80
2021/01/13 03:43:47;;;;;;;8.05;5.42;;;;;;;-2.52;100.00;98865.67;1770125;81;21264;-81
2021/01/13 03:46:52;;;;;;;9.73;6.58;;;;;;;-2.55;100.00;98861.41;1770253;81;21256;-81
2021/01/13 03:50:06;;;;;;;9.03;5.17;;;;;;;-2.64;100.00;98847.45;1770227;81;21351;-80
2021/01/13 03:53:16;;;;;;;9.43;5.58;;;;;;;-2.68;100.00;98831.29;1769988;81;21300;-81
2021/01/13 03:56:22;;;;;;;9.65;5.92;;;;;;;-2.74;100.00;98844.70;1770397;81;21272;-81
2021/01/13 03:59:31;;;;;;;13.18;6.55;;;;;;;-2.81;100.00;98819.94;1749169;81;21271;-80
2021/01/13 04:03:17;;;;;;;9.15;5.70;;;;;;;-2.86;100.00;98803.77;1770257;81;21157;-81
2021/01/13 04:06:23;;;;;;;10.53;6.37;;;;;;;-2.90;100.00;98780.08;1770254;81;21330;-80
2021/01/13 04:09:28;;;;;;;11.33;6.97;;;;;;;-2.98;100.00;98739.23;1770161;81;21272;-80
2021/01/13 04:12:34;;;;;;;12.28;7.53;;;;;;;-3.02;100.00;98777.08;1769290;81;21300;-81
2021/01/13 04:15:45;;;;;;;11.53;7.10;;;;;;;-3.01;100.00;98755.56;1749070;81;21280;-81
2021/01/13 04:18:54;;;;;;;10.95;6.62;;;;;;;-3.02;100.00;98739.12;1770079;81;21272;-81
2021/01/13 04:22:00;;;;;;;11.12;6.75;;;;;;;-3.01;100.00;98708.75;1768768;81;21172;-80
2021/01/13 04:25:05;;;;;;;11.00;6.20;;;;;;;-3.02;100.00;98697.66;1770224;81;21255;-80
2021/01/13 04:28:11;;;;;;;9.35;5.67;;;;;;;-3.06;100.00;98681.51;1770269;81;21260;-80
2021/01/13 04:31:17;;;;;;;9.45;6.22;;;;;;;-3.09;100.00;98680.45;1770299;81;21820;-80
2021/01/13 04:34:22;;;;;;;9.85;6.40;;;;;;;-3.10;100.00;98668.06;1770082;81;21189;-81
2021/01/13 04:37:29;;;;;;;8.23;5.33;;;;;;;-3.11;100.00;98664.52;1768788;81;21335;-80
2021/01/13 04:40:43;;;;;;;9.65;6.00;;;;;;;-3.09;100.00;98684.47;1765939;79;21316;-80
2021/01/13 04:44:06;;;;;;;8.38;5.30;;;;;;;-3.09;100.00;98660.39;1751644;82;21263;-81
2021/01/13 04:47:14;;;;;;;9.75;6.08;;;;;;;-3.10;100.00;98665.39;1751669;82;21259;-80
2021/01/13 04:50:19;;;;;;;8.63;6.12;;;;;;;-3.09;100.00;98659.05;1751611;82;21818;-80
2021/01/13 04:53:28;;;;;;;8.93;6.28;;;;;;;-3.07;100.00;98674.47;1751589;82;21298;-80
2021/01/13 04:56:34;;;;;;;11.53;6.45;;;;;;;-3.03;100.00;98673.23;1751455;82;21269;-81
2021/01/13 05:00:12;;;;;;;7.92;4.80;;;;;;;-3.01;100.00;98684.67;1751646;82;21322;-80
2021/01/13 05:03:46;;;;;;;9.90;5.30;;;;;;;-3.01;100.00;98682.00;1751639;82;21259;-81
2021/01/13 05:06:56;;;;;;;9.93;6.05;;;;;;;-2.99;100.00;98654.61;1751668;82;21869;-81
2021/01/13 05:10:24;;;;;;;18.05;10.50;;;;;;;-2.97;100.00;98667.36;1751038;82;21969;-80
2021/01/13 05:13:30;;;;;;;10.45;6.05;;;;;;;-2.97;100.00;98675.37;1751625;82;21759;-80
2021/01/13 05:16:35;;;;;;;9.05;6.28;;;;;;;-2.94;100.00;98658.23;1751622;82;21262;-80
2021/01/13 05:20:05;;;;;;;11.22;6.60;;;;;;;-2.92;100.00;98681.19;1751664;82;21141;-80
2021/01/13 05:23:11;;;;;;;11.93;6.75;;;;;;;-2.95;100.00;98674.78;1712265;82;21342;-81
2021/01/13 05:26:16;;;;;;;13.55;6.78;;;;;;;-2.95;100.00;98675.27;1751592;82;21152;-81
2021/01/13 05:29:44;;;;;;;12.05;6.83;;;;;;;-2.97;100.00;98652.64;1758198;80;21282;-81
2021/01/13 05:32:49;;;;;;;9.60;6.10;;;;;;;-2.94;100.00;98655.06;1782401;80;21216;-81
2021/01/13 05:36:04;;;;;;;11.80;7.58;;;;;;;-2.92;100.00;98670.97;1782358;80;21294;-81
2021/01/13 05:39:13;;;;;;;11.28;5.65;;;;;;;-2.91;100.00;98690.93;1782363;80;21184;-80
2021/01/13 05:42:20;;;;;;;14.78;5.67;;;;;;;-2.87;100.00;98662.94;1769060;80;21340;-80
2021/01/13 05:45:26;;;;;;;8.05;4.70;;;;;;;-2.86;100.00;98634.34;1777968;80;21355;-81
2021/01/13 05:48:32;;;;;;;7.58;5.28;;;;;;;-2.87;100.00;98644.67;1778215;80;21335;-81
2021/01/13 05:51:39;;;;;;;7.55;5.33;;;;;;;-2.88;100.00;98634.45;1779971;80;21284;-80
2021/01/13 05:54:44;;;;;;;14.45;4.90;;;;;;;-2.90;100.00;98636.92;1782682;80;21144;-80
2021/01/13 05:58:02;;;;;;;8.65;4.85;;;;;;;-2.92;100.00;98607.61;1744206;82;21260;-81
2021/01/13 06:01:11;;;;;;;6.35;5.03;;;;;;;-2.93;100.00;98631.83;1703938;81;21829;-80
2021/01/13 06:04:18;;;;;;;10.45;5.30;;;;;;;-2.92;100.00;98635.70;1778123;79;21275;-81
2021/01/13 06:07:31;;;;;;;10.28;5.20;;;;;;;-2.88;100.00;98620.23;1774069;79;21960;-81
2021/01/13 06:10:42;;;;;;;7.37;4.78;;;;;;;-2.87;100.00;98598.72;1755997;81;21298;-81
2021/01/13 06:13:52;;;;;;;9.35;4.47;;;;;;;-2.87;100.00;98589.81;1761193;81;21279;-80
2021/01/13 06:17:04;;;;;;;9.58;5.92;;;;;;;-2.93;100.00;98565.78;1723201;82;21181;-80
2021/01/13 06:20:11;;;;;;;7.60;4.67;;;;;;;-2.96;100.00;98542.00;1743885;81;21337;-80
2021/01/13 06:23:17;;;;;;;7.67;4.72;;;;;;;-2.95;100.00;98523.62;1712630;81;21913;-85
2021/01/13 06:26:23;;;;;;;8.98;5.05;;;;;;;-2.93;100.00;98528.82;1728764;79;21831;-83
2021/01/13 06:29:49;;;;;;;12.70;4.85;;;;;;;-2.93;100.00;98551.56;1757949;79;21319;-79
2021/01/13 06:33:08;;;;;;;7.70;4.83;;;;;;;-2.94;100.00;98546.70;1748005;79;21934;-80
2021/01/13 06:36:37;;;;;;;9.43;5.03;;;;;;;-2.93;100.00;98538.19;1756657;79;21311;-81
2021/01/13 06:39:44;;;;;;;21.35;10.05;;;;;;;-2.90;100.00;98533.92;1729167;81;21298;-80
2021/01/13 06:42:50;;;;;;;9.08;5.47;;;;;;;-2.88;100.00;98526.09;1736333;79;21376;-80
2021/01/13 06:45:56;;;;;;;7.35;4.75;;;;;;;-2.87;100.00;98528.27;1784967;78;21184;-79
2021/01/13 06:49:03;;;;;;;7.67;5.33;;;;;;;-2.87;100.00;98495.70;1787523;78;21319;-79
2021/01/13 06:52:14;;;;;;;6.92;5.15;;;;;;;-2.79;100.00;98498.17;1784614;78;21279;-79
2021/01/13 06:55:20;;;;;;;7.37;5.17;;;;;;;-2.73;100.00;98493.14;1805849;78;21264;-79
2021/01/13 06:58:27;;;;;;;9.18;4.97;;;;;;;-2.70;100.00;98494.68;1793495;78;21677;-79
2021/01/13 07:01:34;;;;;;;5.58;4.12;;;;;;;-2.67;100.00;98493.08;1795423;78;21288;-79
2021/01/13 07:04:52;;;;;;;9.93;5.05;;;;;;;-2.63;100.00;98489.15;1808038;78;21288;-79
2021/01/13 07:07:57;;;;;;;6.95;4.78;;;;;;;-2.60;100.00;98480.83;1796718;78;21304;-79
2021/01/13 07:11:15;;;;;;;11.15;5.65;;;;;;;-2.58;100.00;98490.92;1783939;78;21173;-79
2021/01/13 07:14:21;;;;;;;14.10;6.12;;;;;;;-2.57;100.00;98469.36;1807097;78;21295;-79
2021/01/13 07:17:27;;;;;;;7.35;4.12;;;;;;;-2.57;100.00;98492.11;1794306;78;21188;-80
2021/01/13 07:20:33;;;;;;;8.08;4.65;;;;;;;-2.56;100.00;98506.34;1799419;78;21802;-80
2021/01/13 07:23:41;;;;;;;8.28;5.25;;;;;;;-2.51;100.00;98507.27;1770448;79;21835;-80
2021/01/13 07:26:50;;;;;;;5.53;3.77;;;;;;;-2.44;100.00;98491.02;1760354;78;21308;-79
2021/01/13 07:29:56;;;;;;;4.92;3.80;;;;;;;-2.42;100.00;98467.12;1805907;78;21181;-79
2021/01/13 07:33:06;;;;;;;8.20;5.15;;;;;;;-2.34;100.00;98449.88;1805716;78;21934;-79
2021/01/13 07:36:12;;;;;;;12.28;8.03;;;;;;;-2.24;100.00;98446.35;1805356;78;21268;-79
2021/01/13 07:39:18;;;;;;;8.78;5.58;;;;;;;-2.15;100.00;98431.61;1800308;78;21173;-79
2021/01/13 07:42:45;;;;;;;6.65;4.10;;;;;;;-2.07;100.00;98450.98;1793785;78;21157;-79
2021/01/13 07:46:00;;;;;;;10.08;6.33;;;;;;;-1.99;100.00;98447.10;1787456;78;21187;-79
2021/01/13 07:49:19;;;;;;;54.80;25.17;;;;;;;-1.91;100.00;98445.06;1775760;78;21903;-80
2021/01/13 07:52:24;;;;;;;27.32;12.45;;;;;;;-1.88;100.00;98433.57;1745453;78;21319;-80
2021/01/13 07:55:31;;;;;;;13.30;7.50;;;;;;;-1.81;100.00;98443.21;1799734;78;21358;-80
2021/01/13 07:58:41;;;;;;;61.28;29.27;;;;;;;-1.75;100.00;98427.04;1797418;78;21362;-80
2021/01/13 08:02:38;;;;;;;8.25;5.72;;;;;;;-1.74;100.00;98439.45;1725129;81;21303;-81
2021/01/13 08:06:06;;;;;;;11.85;9.03;;;;;;;-1.72;100.00;98395.44;1717273;81;21363;-80
2021/01/13 08:09:26;;;;;;;8.13;4.37;;;;;;;-1.63;100.00;98378.48;1752152;80;21138;-81
2021/01/13 08:13:00;;;;;;;6.87;5.20;;;;;;;-1.59;100.00;98393.78;1732105;81;21321;-81
2021/01/13 08:16:58;;;;;;;8.48;6.50;;;;;;;-1.50;100.00;98374.64;1754208;79;21288;-81
2021/01/13 08:20:22;;;;;;;21.10;10.60;;;;;;;-1.41;100.00;98366.55;1787438;78;21192;-80
2021/01/13 08:23:29;;;;;;;5.03;3.85;;;;;;;-1.37;100.00;98363.89;1720640;81;21336;-80
2021/01/13 08:26:35;;;;;;;5.58;3.72;;;;;;;-1.34;100.00;98360.08;1792107;78;21626;-81
2021/01/13 08:29:47;;;;;;;4.60;3.40;;;;;;;-1.30;100.00;98367.69;1791474;78;21257;-81
2021/01/13 08:32:53;;;;;;;5.55;3.40;;;;;;;-1.24;100.00;98358.69;1795769;78;21294;-81
2021/01/13 08:36:02;;;;;;;6.97;4.40;;;;;;;-1.15;100.00;98344.38;1787860;78;21175;-81
2021/01/13 08:39:19;;;;;;;8.43;6.12;;;;;;;-1.09;100.00;98351.32;1793915;78;21279;-81
2021/01/13 08:42:36;;;;;;;5.60;4.70;;;;;;;-1.01;100.00;98352.42;1794705;78;21617;-82
2021/01/13 08:45:48;;;;;;;6.28;4.03;;;;;;;-0.94;100.00;98338.27;1725589;81;21335;-81
2021/01/13 08:48:58;;;;;;;6.17;4.12;;;;;;;-0.93;100.00;98326.52;1738541;81;21170;-81
2021/01/13 08:52:23;;;;;;;15.98;9.28;;;;;;;-0.97;100.00;98323.80;1745729;80;21266;-81
2021/01/13 08:55:32;;;;;;;5.00;3.42;;;;;;;-0.98;100.00;98318.59;1735687;81;21299;-82
2021/01/13 08:58:41;;;;;;;5.08;4.03;;;;;;;-0.95;100.00;98311.05;1717847;81;21303;-81
2021/01/13 09:01:49;;;;;;;5.53;3.55;;;;;;;-0.95;100.00;98311.55;1741468;81;21292;-80
2021/01/13 09:05:01;;;;;;;6.03;4.58;;;;;;;-0.91;100.00;98304.39;1740533;81;22480;-81
2021/01/13 09:08:08;;;;;;;5.12;4.08;;;;;;;-0.84;100.00;98300.11;1766269;79;21243;-82
2021/01/13 09:11:16;;;;;;;6.17;4.00;;;;;;;-0.80;100.00;98288.55;1759132;80;21873;-81
2021/01/13 09:14:32;;;;;;;7.70;2.95;;;;;;;-0.75;100.00;98282.24;1729089;81;21330;-84
2021/01/13 09:17:37;;;;;;;8.85;6.45;;;;;;;-0.72;100.00;98287.78;1741657;80;21593;-82
2021/01/13 09:20:43;;;;;;;5.03;3.60;;;;;;;-0.67;100.00;98294.88;1737394;81;21292;-82
2021/01/13 09:23:50;;;;;;;4.90;3.05;;;;;;;-0.57;100.00;98291.61;1742637;80;21865;-83
2021/01/13 09:27:00;;;;;;;5.72;4.60;;;;;;;-0.49;100.00;98289.50;1764637;80;21216;-81
2021/01/13 09:30:05;;;;;;;4.62;3.22;;;;;;;-0.40;100.00;98300.15;1738938;82;21165;-82
2021/01/13 09:33:22;;;;;;;4.92;3.65;;;;;;;-0.31;100.00;98301.91;1752053;81;21391;-83
2021/01/13 09:36:27;;;;;;;5.58;4.72;;;;;;;-0.16;100.00;98295.95;1725132;81;21217;-81
2021/01/13 09:39:43;;;;;;;68.15;31.85;;;;;;;-0.08;100.00;98263.77;1737629;81;21913;-81
2021/01/13 09:42:49;;;;;;;17.57;11.10;;;;;;;0.06;100.00;98261.84;1739797;81;22002;-82
2021/01/13 09:45:55;;;;;;;6.55;4.03;;;;;;;0.22;100.00;98269.97;1740941;80;21308;-86
2021/01/13 09:49:15;;;;;;;4.12;3.05;;;;;;;0.38;100.00;98284.52;1726632;82;21262;-82
2021/01/13 09:52:21;;;;;;;12.73;7.80;;;;;;;0.53;100.00;98272.65;1718221;82;21835;-83
2021/01/13 09:55:28;;;;;;;6.28;4.05;;;;;;;0.61;100.00;98260.08;1737834;80;21292;-81
2021/01/13 09:58:46;;;;;;;5.40;4.50;;;;;;;0.71;100.00;98263.47;1708166;80;21317;-83
2021/01/13 10:01:52;;;;;;;4.30;3.40;;;;;;;0.80;100.00;98256.26;1747697;81;21331;-81
2021/01/13 10:05:00;;;;;;;3.33;2.47;;;;;;;0.83;100.00;98242.96;1744169;81;21427;-81
2021/01/13 10:08:06;;;;;;;8.23;4.90;;;;;;;0.90;100.00;98259.64;1751424;80;21280;-83
2021/01/13 10:11:12;;;;;;;4.97;3.70;;;;;;;1.02;100.00;98252.08;1743426;80;21303;-81
2021/01/13 10:14:18;;;;;;;12.45;8.13;;;;;;;1.15;100.00;98255.13;1746482;81;21335;-82
2021/01/13 10:17:33;;;;;;;9.88;6.60;;;;;;;1.17;100.00;98261.69;1745269;80;21372;-82
2021/01/13 10:20:44;;;;;;;9.10;5.65;;;;;;;1.23;100.00;98252.45;1700864;82;21293;-83
2021/01/13 10:23:49;;;;;;;13.75;7.62;;;;;;;1.34;100.00;98261.21;1739596;81;21566;-83
2021/01/13 10:26:51;;;;;;;14.18;5.87;;;;;;;1.45;100.00;98250.09;1699323;82;21873;-83
2021/01/13 10:29:56;;;;;;;12.70;5.55;;;;;;;1.51;100.00;98234.11;1741020;81;21283;-82
2021/01/13 10:33:03;;;;;;;8.75;4.35;;;;;;;1.61;100.00;98233.93;1737031;81;22551;-82
2021/01/13 10:36:09;;;;;;;9.88;5.60;;;;;;;1.74;100.00;98241.47;1719185;82;21302;-82
2021/01/13 10:39:23;;;;;;;10.20;5.70;;;;;;;1.87;100.00;98236.91;1736946;80;21327;-83
2021/01/13 10:42:28;;;;;;;6.15;4.03;;;;;;;1.94;100.00;98208.27;1709286;82;21847;-83
2021/01/13 10:45:35;;;;;;;7.58;4.58;;;;;;;2.07;100.00;98192.87;1738783;80;21202;-83
2021/01/13 10:48:43;;;;;;;6.35;3.50;;;;;;;2.13;100.00;98193.03;1706164;81;21289;-83
2021/01/13 10:51:48;;;;;;;4.53;3.15;;;;;;;2.12;100.00;98191.36;1735675;81;21159;-83
2021/01/13 10:54:56;;;;;;;4.85;2.83;;;;;;;2.13;100.00;98194.37;1738587;81;21173;-83
2021/01/13 10:58:03;;;;;;;3.60;2.92;;;;;;;2.09;100.00;98189.51;1738800;81;21737;-83
2021/01/13 11:01:12;;;;;;;6.10;3.35;;;;;;;2.00;100.00;98203.52;1808766;78;21664;-83
2021/01/13 11:04:34;;;;;;;3.95;2.75;;;;;;;1.83;100.00;98207.26;1822764;78;21212;-83
2021/01/13 11:07:49;;;;;;;6.28;3.67;;;;;;;1.67;100.00;98200.06;1803552;78;21272;-83
2021/01/13 11:10:56;;;;;;;4.70;3.67;;;;;;;1.53;100.00;98199.73;1806137;77;21568;-82
2021/01/13 11:14:01;;;;;;;5.10;3.25;;;;;;;1.45;100.00;98200.25;1813817;78;21140;-83
2021/01/13 11:17:15;;;;;;;4.87;3.15;;;;;;;1.34;100.00;98198.75;1803513;78;21788;-83
2021/01/13 11:20:22;;;;;;;4.30;3.10;;;;;;;1.23;100.00;98174.35;1797474;78;21196;-83
2021/01/13 11:23:28;;;;;;;5.60;3.83;;;;;;;1.18;100.00;98174.02;1801777;78;21265;-83
2021/01/13 11:26:44;;;;;;;5.33;4.45;;;;;;;1.08;100.00;98167.94;1802882;78;21299;-83
2021/01/13 11:29:53;;;;;;;8.33;6.55;;;;;;;0.92;100.00;98162.56;1808808;78;21533;-82
2021/01/13 11:33:05;;;;;;;19.55;13.53;;;;;;;0.76;100.00;98166.92;1804121;77;21304;-84
2021/01/13 11:36:11;;;;;;;21.05;12.73;;;;;;;0.65;100.00;98177.98;1797608;77;21319;-84
2021/01/13 11:39:17;;;;;;;12.45;9.68;;;;;;;0.57;100.00;98171.27;1798377;78;21866;-83
2021/01/13 11:42:34;;;;;;;11.33;7.95;;;;;;;0.47;100.00;98169.20;1798431;78;21791;-83
2021/01/13 11:46:11;;;;;;;7.60;5.95;;;;;;;0.33;100.00;98167.15;1802943;78;21208;-82
2021/01/13 11:49:31;;;;;;;11.20;6.03;;;;;;;0.22;100.00;98158.38;1793800;79;21732;-83
2021/01/13 11:52:41;;;;;;;7.87;5.92;;;;;;;0.11;100.00;98168.11;1802640;78;21602;-82
2021/01/13 11:55:49;;;;;;;8.28;5.65;;;;;;;0.03;100.00;98194.11;1809236;78;21854;-82
2021/01/13 11:58:54;;;;;;;10.13;6.15;;;;;;;-0.07;100.00;98189.70;1799191;78;21288;-81
2021/01/13 12:01:59;;;;;;;11.18;6.28;;;;;;;-0.16;100.00;98214.00;1797854;78;22309;-80
2021/01/13 12:05:06;;;;;;;12.50;6.33;;;;;;;-0.28;100.00;98207.56;1805283;78;21277;-81
2021/01/13 12:08:18;;;;;;;9.58;5.72;;;;;;;-0.32;100.00;98221.47;1795298;78;21734;-81
2021/01/13 12:11:25;;;;;;;11.45;6.87;;;;;;;-0.35;100.00;98221.27;1785362;78;21342;-81
2021/01/13 12:14:30;;;;;;;10.68;8.30;;;;;;;-0.38;100.00;98237.70;1790683;78;21220;-81
2021/01/13 12:17:39;;;;;;;13.80;8.83;;;;;;;-0.38;100.00;98243.57;1793132;78;21326;-81
2021/01/13 12:20:46;;;;;;;11.83;8.30;;;;;;;-0.37;100.00;98247.47;1790786;78;22123;-81
2021/01/13 12:23:54;;;;;;;15.13;9.13;;;;;;;-0.34;100.00;98243.61;1797040;78;21130;-81
2021/01/13 12:27:02;;;;;;;11.30;7.37;;;;;;;-0.33;100.00;98252.88;1797609;78;21812;-80
2021/01/13 12:30:22;;;;;;;9.73;5.85;;;;;;;-0.26;100.00;98253.91;1793649;79;21201;-82
2021/01/13 12:33:28;;;;;;;7.60;5.78;;;;;;;-0.22;100.00;98265.19;1788986;78;21276;-82
2021/01/13 12:36:40;;;;;;;7.50;6.20;;;;;;;-0.24;100.00;98271.70;1761368;80;21167;-82
2021/01/13 12:39:46;;;;;;;24.72;15.55;;;;;;;-0.29;100.00;98273.02;1754761;81;21312;-81
2021/01/13 12:42:54;;;;;;;46.50;24.37;;;;;;;-0.31;100.00;98287.63;1725736;82;21310;-81
2021/01/13 12:46:00;;;;;;;51.88;30.57;;;;;;;-0.32;100.00;98283.27;1733300;82;21313;-81
2021/01/13 12:49:06;;;;;;;57.30;30.50;;;;;;;-0.34;100.00;98278.53;1729992;82;21313;-81
2021/01/13 12:52:14;;;;;;;72.67;38.75;;;;;;;-0.38;100.00;98269.93;1724795;81;21303;-82
2021/01/13 12:55:20;;;;;;;75.75;39.38;;;;;;;-0.38;100.00;98265.90;1732378;82;21783;-81
2021/01/13 12:58:26;;;;;;;60.30;34.65;;;;;;;-0.35;100.00;98273.66;1692649;83;21185;-81
2021/01/13 13:01:31;;;;;;;52.13;28.90;;;;;;;-0.36;100.00;98266.61;1700539;83;21416;-81
2021/01/13 13:04:37;;;;;;;49.27;26.42;;;;;;;-0.42;100.00;98278.48;1702628;83;21417;-80
2021/01/13 13:07:43;;;;;;;36.70;20.57;;;;;;;-0.44;100.00;98274.59;1708340;83;21492;-81
2021/01/13 13:10:50;;;;;;;22.27;12.45;;;;;;;-0.48;100.00;98282.61;1714287;83;21238;-81
2021/01/13 13:13:55;;;;;;;16.97;10.88;;;;;;;-0.54;100.00;98272.51;1701815;83;21327;-81
2021/01/13 13:17:01;;;;;;;18.62;10.13;;;;;;;-0.60;100.00;98258.37;1686015;84;21382;-81
2021/01/13 13:20:07;;;;;;;14.83;8.48;;;;;;;-0.65;100.00;98264.70;1706218;83;21178;-82
2021/01/13 13:23:13;;;;;;;11.22;7.62;;;;;;;-0.74;100.00;98281.73;1701432;83;21430;-81
2021/01/13 13:26:20;;;;;;;14.18;7.87;;;;;;;-0.83;100.00;98298.27;1695615;83;21879;-82
2021/01/13 13:29:26;;;;;;;12.82;7.80;;;;;;;-0.94;100.00;98304.71;1664322;84;21239;-82
2021/01/13 13:32:32;;;;;;;13.18;7.20;;;;;;;-1.04;100.00;98307.94;1712557;83;21280;-80
2021/01/13 13:35:38;;;;;;;13.75;7.33;;;;;;;-1.10;100.00;98318.78;1713190;83;21221;-81
2021/01/13 13:38:46;;;;;;;14.53;6.83;;;;;;;-1.12;100.00;98317.27;1700572;83;21352;-81
2021/01/13 13:41:53;;;;;;;12.70;6.00;;;;;;;-1.17;100.00;98320.40;1697789;83;21161;-80
2021/01/13 13:44:59;;;;;;;17.15;7.17;;;;;;;-1.13;100.00;98327.16;1720694;82;21342;-80
2021/01/13 13:48:06;;;;;;;11.80;6.92;;;;;;;-1.23;100.00;98316.95;1709487;82;21201;-80
2021/01/13 13:51:12;;;;;;;15.18;7.80;;;;;;;-1.30;100.00;98319.91;1714848;81;21300;-81
2021/01/13 13:54:17;;;;;;;14.63;8.88;;;;;;;-1.39;100.00;98334.20;1722922;81;21309;-81
2021/01/13 13:57:22;;;;;;;12.15;7.47;;;;;;;-1.42;100.00;98335.84;1716076;82;21292;-82
2021/01/13 14:00:29;;;;;;;14.68;9.35;;;;;;;-1.46;100.00;98328.58;1731850;81;21286;-80
2021/01/13 14:03:37;;;;;;;11.55;7.75;;;;;;;-1.46;100.00;98331.25;1723954;81;21169;-81
2021/01/13 14:06:44;;;;;;;12.43;8.13;;;;;;;-1.48;100.00;98329.73;1729911;81;21598;-80
2021/01/13 14:09:49;;;;;;;13.60;8.38;;;;;;;-1.48;100.00;98330.58;1723601;82;21329;-80
2021/01/13 14:12:56;;;;;;;14.20;8.38;;;;;;;-1.52;100.00;98345.77;1801482;79;21340;-80
2021/01/13 14:16:02;;;;;;;12.47;8.60;;;;;;;-1.51;100.00;98360.36;1797328;79;21204;-80
2021/01/13 14:19:08;;;;;;;12.93;8.23;;;;;;;-1.49;100.00;98350.34;1789190;78;21304;-79
2021/01/13 14:22:13;;;;;;;11.63;7.78;;;;;;;-1.53;100.00;98349.45;1796532;79;21280;-80
2021/01/13 14:25:19;;;;;;;13.48;8.60;;;;;;;-1.55;100.00;98364.35;1794467;78;21283;-80
2021/01/13 14:28:24;;;;;;;11.45;6.70;;;;;;;-1.60;100.00;98374.64;1800406;78;21256;-83
2021/01/13 14:31:30;;;;;;;12.93;7.75;;;;;;;-1.62;100.00;98376.64;1804420;78;21820;-81
2021/01/13 14:34:36;;;;;;;12.85;7.28;;;;;;;-1.64;100.00;98371.94;1800569;79;21389;-81
2021/01/13 14:37:43;;;;;;;12.37;6.97;;;;;;;-1.65;100.00;98366.20;1802721;78;21288;-81